Terminal Aerodrome Forecast
Issued by NWS Cleveland, OH

Home | Current Version | Previous Version | Graphics & Text | Print | Product List | Glossary On
Versions: 1 2 3 4 5 6 7 8 9 10 11 12 13 14 15 16 17 18 19 20 21 22 23
000
FTUS41 KCLE 051100 RRA
TAFMFD
TAF
KMFD 051141Z 0512/0612 18003KT 3SM BR BKN090 OVC120
     FM051300 VRB05KT 6SM -SHRA BR BKN040 OVC100
      TEMPO 0513/0515 4SM -SHRA SCT025 BKN040
     FM051500 20006KT P6SM SCT035 OVC100
     FM052100 VRB04KT P6SM VCSH BKN035 OVC100
     FM060600 VRB03KT 4SM BR SCT040 BKN200=

USA.gov is the U.S. government's official web portal to all federal, state and local government web resources and services.